createdAt,value
2019-06-26T00:00:42.172Z,24.08
2019-06-26T00:01:42.157Z,24.04
2019-06-26T00:02:42.142Z,23.98
2019-06-26T00:03:42.127Z,24.02
2019-06-26T00:04:42.116Z,23.98
2019-06-26T00:05:42.098Z,23.97
2019-06-26T00:06:42.083Z,23.87
2019-06-26T00:07:42.071Z,23.95
2019-06-26T00:08:42.054Z,24.00
2019-06-26T00:09:42.039Z,24.01
2019-06-26T00:10:42.027Z,23.92
2019-06-26T00:11:42.009Z,23.90
2019-06-26T00:12:41.994Z,23.86
2019-06-26T00:13:41.979Z,23.90
2019-06-26T00:14:41.965Z,23.90
2019-06-26T00:15:41.950Z,23.89
2019-06-26T00:16:41.999Z,23.79
2019-06-26T00:17:41.920Z,23.80
2019-06-26T00:18:41.908Z,23.85
2019-06-26T00:19:41.893Z,23.82
2019-06-26T00:20:41.876Z,23.80
2019-06-26T00:21:42.611Z,23.82
2019-06-26T00:22:41.846Z,23.79
2019-06-26T00:23:41.832Z,23.79
2019-06-26T00:24:41.816Z,23.77
2019-06-26T00:25:41.805Z,23.76
2019-06-26T00:26:41.786Z,23.70
2019-06-26T00:27:41.771Z,23.79
2019-06-26T00:28:41.757Z,23.72
2019-06-26T00:29:41.741Z,23.86
2019-06-26T00:30:41.728Z,23.89
2019-06-26T00:31:41.712Z,23.90
2019-06-26T00:32:41.704Z,23.94
2019-06-26T00:33:41.683Z,23.86
2019-06-26T00:34:41.667Z,23.89
2019-06-26T00:35:41.672Z,23.82
2019-06-26T00:36:41.639Z,23.85
2019-06-26T00:37:41.623Z,23.85
2019-06-26T00:38:41.615Z,23.85
2019-06-26T00:39:41.594Z,23.85
2019-06-26T00:40:41.579Z,23.79
2019-06-26T00:41:41.692Z,23.72
2019-06-26T00:42:41.549Z,23.77
2019-06-26T00:43:42.833Z,23.80
2019-06-26T00:44:41.535Z,23.70
2019-06-26T00:45:41.504Z,23.77
2019-06-26T00:46:41.511Z,23.76
2019-06-26T00:47:41.475Z,23.75
2019-06-26T00:48:41.464Z,23.76
2019-06-26T00:49:41.502Z,23.76
2019-06-26T00:50:41.450Z,23.79
2019-06-26T00:51:41.421Z,23.67
2019-06-26T00:52:41.405Z,23.75
2019-06-26T00:53:41.385Z,23.77
2019-06-26T00:54:41.377Z,23.71
2019-06-26T00:55:41.352Z,23.68
2019-06-26T00:56:41.339Z,23.64
2019-06-26T00:57:41.327Z,23.57
2019-06-26T00:58:41.307Z,23.50
2019-06-26T00:59:41.292Z,23.62
2019-06-26T01:00:41.277Z,23.55
2019-06-26T01:01:41.261Z,23.52
2019-06-26T01:02:41.249Z,23.50
2019-06-26T01:03:41.231Z,23.40
2019-06-26T01:04:41.217Z,23.50
2019-06-26T01:05:41.202Z,23.42
2019-06-26T01:06:41.190Z,23.46
2019-06-26T01:07:41.177Z,23.34
2019-06-26T01:08:41.157Z,23.34
2019-06-26T01:09:41.140Z,23.32
2019-06-26T01:10:41.126Z,23.29
2019-06-26T01:11:41.110Z,23.23
2019-06-26T01:12:41.095Z,23.23
2019-06-26T01:13:41.079Z,23.27
2019-06-26T01:14:41.110Z,23.24
2019-06-26T01:15:41.055Z,23.27
2019-06-26T01:16:41.033Z,23.14
2019-06-26T01:17:41.021Z,23.11
2019-06-26T01:18:41.005Z,23.07
2019-06-26T01:19:40.987Z,23.05
2019-06-26T01:20:40.983Z,23.12
2019-06-26T01:21:40.957Z,23.07
2019-06-26T01:22:40.943Z,23.02
2019-06-26T01:23:40.929Z,22.93
2019-06-26T01:24:40.912Z,22.96
2019-06-26T01:25:42.396Z,22.92
2019-06-26T01:26:40.880Z,23.05
2019-06-26T01:27:40.864Z,23.07
2019-06-26T01:28:40.849Z,23.01
2019-06-26T01:29:40.834Z,23.01
2019-06-26T01:30:40.818Z,22.96
2019-06-26T01:31:40.807Z,23.01
2019-06-26T01:32:40.789Z,23.01
2019-06-26T01:33:40.772Z,22.92
2019-06-26T01:34:40.757Z,22.93
2019-06-26T01:35:40.741Z,23.02
2019-06-26T01:36:40.727Z,22.90
2019-06-26T01:37:40.713Z,22.90
2019-06-26T01:38:40.695Z,22.96
2019-06-26T01:39:40.682Z,22.92
2019-06-26T01:40:40.667Z,22.86
2019-06-26T01:41:40.655Z,22.90
2019-06-26T01:42:40.633Z,22.87
2019-06-26T01:43:40.618Z,22.90
2019-06-26T01:44:40.603Z,22.87
2019-06-26T01:45:40.586Z,22.94
2019-06-26T01:46:40.571Z,22.94
2019-06-26T01:47:40.555Z,23.01
2019-06-26T01:48:40.540Z,22.94
2019-06-26T01:49:40.523Z,22.97
2019-06-26T01:50:40.508Z,22.90
2019-06-26T01:51:40.492Z,22.84
2019-06-26T01:52:40.479Z,22.87
2019-06-26T01:53:40.461Z,22.96
2019-06-26T01:54:40.448Z,22.96
2019-06-26T01:55:40.430Z,22.90
2019-06-26T01:56:40.416Z,22.92
2019-06-26T01:57:40.403Z,22.84
2019-06-26T01:58:40.385Z,22.92
2019-06-26T01:59:40.368Z,22.94
2019-06-26T02:00:40.353Z,22.87
2019-06-26T02:01:40.341Z,22.83
2019-06-26T02:02:40.321Z,22.84
2019-06-26T02:03:40.306Z,22.78
2019-06-26T02:04:40.290Z,22.78
2019-06-26T02:05:40.274Z,22.93
2019-06-26T02:06:40.258Z,22.83
2019-06-26T02:07:40.245Z,22.86
2019-06-26T02:08:40.228Z,22.74
2019-06-26T02:09:40.216Z,22.71
2019-06-26T02:10:40.198Z,22.74
2019-06-26T02:11:40.180Z,22.78
2019-06-26T02:12:40.164Z,22.74
2019-06-26T02:13:40.148Z,22.69
2019-06-26T02:14:40.133Z,22.62
2019-06-26T02:15:40.119Z,22.69
2019-06-26T02:16:40.103Z,22.67
2019-06-26T02:17:40.092Z,22.62
2019-06-26T02:18:40.072Z,22.57
2019-06-26T02:19:40.090Z,22.68
2019-06-26T02:20:40.040Z,22.65
2019-06-26T02:21:40.029Z,22.69
2019-06-26T02:22:40.008Z,22.65
2019-06-26T02:23:39.990Z,22.67
2019-06-26T02:24:39.978Z,22.54
2019-06-26T02:25:39.960Z,22.64
2019-06-26T02:26:39.944Z,22.60
2019-06-26T02:27:39.945Z,22.62
2019-06-26T02:28:39.915Z,22.57
2019-06-26T02:29:39.899Z,22.53
2019-06-26T02:30:39.881Z,22.59
2019-06-26T02:31:39.896Z,22.46
2019-06-26T02:32:39.851Z,22.56
2019-06-26T02:33:39.833Z,22.60
2019-06-26T02:34:39.820Z,22.56
2019-06-26T02:35:39.805Z,22.52
2019-06-26T02:36:39.790Z,22.65
2019-06-26T02:37:39.789Z,22.54
2019-06-26T02:38:39.754Z,22.54
2019-06-26T02:39:39.740Z,22.43
2019-06-26T02:40:39.723Z,22.53
2019-06-26T02:41:39.706Z,22.57
2019-06-26T02:42:39.695Z,22.60
2019-06-26T02:43:39.680Z,22.57
2019-06-26T02:44:52.043Z,22.54
2019-06-26T02:45:39.643Z,22.62
2019-06-26T02:46:39.628Z,22.59
2019-06-26T02:47:39.625Z,22.54
2019-06-26T02:48:39.605Z,22.53
2019-06-26T02:49:39.585Z,22.53
2019-06-26T02:50:39.566Z,22.53
2019-06-26T02:51:39.550Z,22.43
2019-06-26T02:52:39.536Z,22.41
2019-06-26T02:53:39.518Z,22.53
2019-06-26T02:54:39.502Z,22.43
2019-06-26T02:55:39.487Z,22.49
2019-06-26T02:56:39.475Z,22.46
2019-06-26T02:57:39.458Z,22.47
2019-06-26T02:58:39.444Z,22.41
2019-06-26T02:59:39.428Z,22.49
2019-06-26T03:00:39.427Z,22.47
2019-06-26T03:01:39.393Z,22.31
2019-06-26T03:02:39.375Z,22.29
2019-06-26T03:03:39.359Z,22.35
2019-06-26T03:04:39.346Z,22.23
2019-06-26T03:05:39.326Z,22.31
2019-06-26T03:06:39.311Z,22.39
2019-06-26T03:07:39.296Z,22.28
2019-06-26T03:08:39.285Z,22.35
2019-06-26T03:09:39.268Z,22.31
2019-06-26T03:10:39.247Z,22.32
2019-06-26T03:11:39.234Z,22.32
2019-06-26T03:12:39.221Z,22.31
2019-06-26T03:13:39.199Z,22.28
2019-06-26T03:14:39.183Z,22.22
2019-06-26T03:15:39.169Z,22.31
2019-06-26T03:16:39.153Z,22.19
2019-06-26T03:17:54.151Z,22.17
2019-06-26T03:18:39.124Z,22.14
2019-06-26T03:19:39.104Z,22.17
2019-06-26T03:20:39.088Z,22.29
2019-06-26T03:21:39.073Z,22.23
2019-06-26T03:22:39.056Z,22.17
2019-06-26T03:23:39.041Z,22.27
2019-06-26T03:24:39.025Z,22.25
2019-06-26T03:25:39.008Z,22.25
2019-06-26T03:26:38.993Z,22.25
2019-06-26T03:27:39.730Z,22.28
2019-06-26T03:28:38.963Z,22.27
2019-06-26T03:29:38.947Z,22.25
2019-06-26T03:30:38.940Z,22.27
2019-06-26T03:31:38.914Z,22.32
2019-06-26T03:32:38.947Z,22.27
2019-06-26T03:33:38.885Z,22.25
2019-06-26T03:34:38.865Z,22.39
2019-06-26T03:35:40.871Z,22.46
2019-06-26T03:36:38.834Z,22.50
2019-06-26T03:37:38.817Z,22.57
2019-06-26T03:38:38.828Z,22.43
2019-06-26T03:39:38.787Z,22.44
2019-06-26T03:40:38.770Z,22.56
2019-06-26T03:41:38.754Z,22.49
2019-06-26T03:42:38.738Z,22.47
2019-06-26T03:43:38.722Z,22.54
2019-06-26T03:44:38.706Z,22.54
2019-06-26T03:45:38.693Z,22.59
2019-06-26T03:46:38.674Z,22.49
2019-06-26T03:47:38.659Z,22.46
2019-06-26T03:48:38.642Z,22.56
2019-06-26T03:49:38.625Z,22.54
2019-06-26T03:50:38.630Z,22.56
2019-06-26T03:51:38.632Z,22.59
2019-06-26T03:52:38.579Z,22.54
2019-06-26T03:53:39.313Z,22.43
2019-06-26T03:54:38.547Z,22.59
2019-06-26T03:55:38.531Z,22.56
2019-06-26T03:56:38.515Z,22.53
2019-06-26T03:57:38.498Z,22.50
2019-06-26T03:58:38.483Z,22.54
2019-06-26T03:59:38.470Z,22.56
2019-06-26T04:00:38.454Z,22.57
2019-06-26T04:01:38.438Z,22.53
2019-06-26T04:02:38.434Z,22.57
2019-06-26T04:03:38.405Z,22.59
2019-06-26T04:04:38.389Z,22.59
2019-06-26T04:05:38.373Z,22.60
2019-06-26T04:06:38.357Z,22.71
2019-06-26T04:07:38.339Z,22.74
2019-06-26T04:08:38.325Z,22.67
2019-06-26T04:09:38.308Z,22.72
2019-06-26T04:10:38.297Z,22.77
2019-06-26T04:11:38.277Z,22.80
2019-06-26T04:12:38.263Z,22.92
2019-06-26T04:13:38.245Z,22.78
2019-06-26T04:14:38.228Z,22.80
2019-06-26T04:15:42.597Z,22.84
2019-06-26T04:16:38.202Z,22.87
2019-06-26T04:17:38.181Z,22.84
2019-06-26T04:18:38.166Z,22.90
2019-06-26T04:19:38.152Z,22.90
2019-06-26T04:20:38.135Z,22.87
2019-06-26T04:21:38.117Z,22.92
2019-06-26T04:22:38.102Z,22.96
2019-06-26T04:23:38.087Z,23.04
2019-06-26T04:24:38.073Z,22.96
2019-06-26T04:25:38.507Z,22.99
2019-06-26T04:26:38.043Z,23.02
2019-06-26T04:27:38.031Z,22.99
2019-06-26T04:28:38.011Z,23.04
2019-06-26T04:29:37.995Z,23.11
2019-06-26T04:30:37.978Z,23.04
2019-06-26T04:31:37.962Z,23.14
2019-06-26T04:32:37.947Z,23.11
2019-06-26T04:33:37.939Z,23.12
2019-06-26T04:34:37.919Z,23.14
2019-06-26T04:35:37.899Z,23.20
2019-06-26T04:36:37.884Z,23.38
2019-06-26T04:37:37.869Z,23.19
2019-06-26T04:38:37.852Z,23.19
2019-06-26T04:39:37.837Z,23.23
2019-06-26T04:40:37.823Z,23.20
2019-06-26T04:41:37.811Z,23.26
2019-06-26T04:42:37.802Z,23.31
2019-06-26T04:43:37.792Z,23.39
2019-06-26T04:44:37.765Z,23.31
2019-06-26T04:45:37.748Z,23.49
2019-06-26T04:46:37.734Z,23.53
2019-06-26T04:47:37.717Z,23.46
2019-06-26T04:48:37.697Z,23.42
2019-06-26T04:49:37.680Z,23.34
2019-06-26T04:50:37.668Z,23.47
2019-06-26T04:51:37.653Z,23.46
2019-06-26T04:52:37.636Z,23.47
2019-06-26T04:53:37.617Z,23.58
2019-06-26T04:54:37.613Z,23.47
2019-06-26T04:55:37.603Z,23.55
2019-06-26T04:56:37.574Z,23.49
2019-06-26T04:57:37.574Z,23.55
2019-06-26T04:58:37.541Z,23.47
2019-06-26T04:59:37.527Z,23.52
2019-06-26T05:00:37.512Z,23.55
2019-06-26T05:01:37.499Z,23.52
2019-06-26T05:02:37.482Z,23.49
2019-06-26T05:03:38.234Z,23.61
2019-06-26T05:04:37.448Z,23.57
2019-06-26T05:05:39.915Z,23.58
2019-06-26T05:06:37.418Z,23.58
2019-06-26T05:07:37.403Z,23.57
2019-06-26T05:08:37.387Z,23.70
2019-06-26T05:09:37.372Z,23.70
2019-06-26T05:10:37.356Z,23.79
2019-06-26T05:11:37.341Z,23.70
2019-06-26T05:12:37.327Z,23.79
2019-06-26T05:13:37.315Z,23.67
2019-06-26T05:14:37.296Z,23.77
2019-06-26T05:15:37.284Z,23.77
2019-06-26T05:16:37.267Z,23.70
2019-06-26T05:17:37.248Z,23.79
2019-06-26T05:18:37.234Z,23.90
2019-06-26T05:19:37.218Z,23.89
2019-06-26T05:20:37.204Z,23.89
2019-06-26T05:21:37.187Z,23.89
2019-06-26T05:22:37.173Z,23.98
2019-06-26T05:23:37.158Z,23.95
2019-06-26T05:24:37.146Z,23.92
2019-06-26T05:25:37.128Z,24.00
2019-06-26T05:26:37.112Z,23.97
2019-06-26T05:27:37.096Z,23.98
2019-06-26T05:28:37.081Z,23.98
2019-06-26T05:29:37.067Z,24.12
2019-06-26T05:30:37.052Z,24.12
2019-06-26T05:31:37.035Z,24.13
2019-06-26T05:32:37.022Z,24.17
2019-06-26T05:33:37.005Z,24.17
2019-06-26T05:34:37.073Z,24.24
2019-06-26T05:35:38.477Z,24.32
2019-06-26T05:36:36.961Z,24.32
2019-06-26T05:37:36.948Z,24.31
2019-06-26T05:38:36.948Z,24.39
2019-06-26T05:39:36.916Z,24.39
2019-06-26T05:40:36.901Z,24.42
2019-06-26T05:41:37.635Z,24.47
2019-06-26T05:42:36.869Z,24.47
2019-06-26T05:43:36.855Z,24.54
2019-06-26T05:44:36.841Z,24.53
2019-06-26T05:45:36.825Z,24.68
2019-06-26T05:46:36.812Z,24.64
2019-06-26T05:47:36.794Z,24.79
2019-06-26T05:48:36.787Z,24.76
2019-06-26T05:49:36.768Z,24.79
2019-06-26T05:50:36.749Z,24.85
2019-06-26T05:51:36.756Z,24.88
2019-06-26T05:52:37.471Z,24.92
2019-06-26T05:53:36.705Z,25.02
2019-06-26T05:54:36.693Z,25.00
2019-06-26T05:55:36.685Z,25.10
2019-06-26T05:56:36.663Z,25.06
2019-06-26T05:57:36.644Z,25.13
2019-06-26T05:58:36.630Z,24.97
2019-06-26T05:59:36.616Z,24.98
2019-06-26T06:00:36.607Z,24.97
2019-06-26T06:01:36.588Z,24.94
2019-06-26T06:02:36.576Z,25.02
2019-06-26T06:03:36.583Z,25.09
2019-06-26T06:04:36.544Z,25.13
2019-06-26T06:05:36.527Z,25.15
2019-06-26T06:06:41.452Z,25.22
2019-06-26T06:07:36.497Z,25.20
2019-06-26T06:08:36.483Z,25.16
2019-06-26T06:09:36.471Z,25.10
2019-06-26T06:10:36.454Z,25.22
2019-06-26T06:11:36.439Z,25.22
2019-06-26T06:12:36.482Z,25.28
2019-06-26T06:13:36.433Z,25.20
2019-06-26T06:14:36.397Z,25.13
2019-06-26T06:15:36.388Z,25.15
2019-06-26T06:16:46.764Z,25.37
2019-06-26T06:17:36.351Z,25.28
2019-06-26T06:18:36.335Z,25.35
2019-06-26T06:19:38.573Z,25.32
2019-06-26T06:20:36.307Z,25.30
2019-06-26T06:21:36.293Z,25.53
2019-06-26T06:22:36.279Z,25.64
2019-06-26T06:23:36.264Z,25.64
2019-06-26T06:24:36.250Z,25.75
2019-06-26T06:25:36.985Z,25.80
2019-06-26T06:26:36.218Z,25.86
2019-06-26T06:27:36.204Z,25.94
2019-06-26T06:28:36.190Z,25.91
2019-06-26T06:29:36.174Z,25.99
2019-06-26T06:30:36.162Z,26.06
2019-06-26T06:31:36.147Z,26.20
2019-06-26T06:32:36.135Z,26.09
2019-06-26T06:33:36.117Z,26.31
2019-06-26T06:34:36.103Z,26.35
2019-06-26T06:35:36.100Z,26.31
2019-06-26T06:36:36.086Z,26.46
2019-06-26T06:37:36.062Z,26.43
2019-06-26T06:38:36.060Z,26.44
2019-06-26T06:39:36.032Z,26.50
2019-06-26T06:40:36.019Z,26.46
2019-06-26T06:41:36.002Z,26.52
2019-06-26T06:42:35.989Z,26.50
2019-06-26T06:43:35.988Z,26.59
2019-06-26T06:44:35.960Z,26.62
2019-06-26T06:45:35.947Z,26.59
2019-06-26T06:46:35.932Z,26.61
2019-06-26T06:47:35.923Z,26.74
2019-06-26T06:48:35.905Z,26.73
2019-06-26T06:49:35.890Z,26.69
2019-06-26T06:50:35.875Z,26.80
2019-06-26T06:51:35.864Z,26.84
2019-06-26T06:52:35.849Z,26.79
2019-06-26T06:53:35.834Z,26.84
2019-06-26T06:54:35.820Z,26.87
2019-06-26T06:55:35.808Z,26.83
2019-06-26T06:56:35.795Z,26.94
2019-06-26T06:57:35.778Z,26.91
2019-06-26T06:58:35.763Z,27.05
2019-06-26T06:59:35.753Z,26.86
2019-06-26T07:00:35.742Z,26.87
2019-06-26T07:01:35.723Z,26.94
2019-06-26T07:02:35.714Z,27.05
2019-06-26T07:03:35.696Z,27.14
2019-06-26T07:04:35.682Z,27.02
2019-06-26T07:05:35.666Z,27.09
2019-06-26T07:06:35.653Z,27.04
2019-06-26T07:07:35.640Z,27.02
2019-06-26T07:08:35.626Z,27.11
2019-06-26T07:09:35.612Z,27.02
2019-06-26T07:10:35.666Z,27.14
2019-06-26T07:11:35.585Z,27.11
2019-06-26T07:12:35.572Z,27.26
2019-06-26T07:13:35.557Z,27.20
2019-06-26T07:14:35.544Z,27.28
2019-06-26T07:15:35.532Z,27.31
2019-06-26T07:16:35.517Z,27.35
2019-06-26T07:17:35.504Z,27.48
2019-06-26T07:18:35.520Z,27.59
2019-06-26T07:19:35.477Z,27.62
2019-06-26T07:20:35.465Z,27.59
2019-06-26T07:21:35.448Z,27.51
2019-06-26T07:22:35.434Z,27.67
2019-06-26T07:23:36.173Z,27.62
2019-06-26T07:24:35.426Z,27.50
2019-06-26T07:25:35.395Z,27.62
2019-06-26T07:26:35.383Z,27.50
2019-06-26T07:27:35.367Z,27.42
2019-06-26T07:28:35.356Z,27.47
2019-06-26T07:29:35.339Z,27.47
2019-06-26T07:30:35.333Z,27.61
2019-06-26T07:31:38.466Z,27.69
2019-06-26T07:32:35.309Z,27.88
2019-06-26T07:33:35.287Z,27.86
2019-06-26T07:34:35.274Z,27.92
2019-06-26T07:35:35.269Z,28.10
2019-06-26T07:36:35.268Z,28.16
2019-06-26T07:37:35.234Z,28.32
2019-06-26T07:38:35.220Z,28.33
2019-06-26T07:39:35.208Z,28.43
2019-06-26T07:40:35.194Z,28.50
2019-06-26T07:41:35.180Z,28.54
2019-06-26T07:42:35.167Z,28.56
2019-06-26T07:43:35.154Z,28.63
2019-06-26T07:44:35.141Z,28.51
2019-06-26T07:45:35.127Z,28.41
2019-06-26T07:46:35.115Z,28.31
2019-06-26T07:47:43.349Z,28.36
2019-06-26T07:48:35.088Z,28.48
2019-06-26T07:49:35.075Z,28.58
2019-06-26T07:50:35.063Z,28.56
2019-06-26T07:51:35.048Z,28.65
2019-06-26T07:52:35.036Z,28.65
2019-06-26T07:53:35.026Z,28.68
2019-06-26T07:54:35.010Z,28.56
2019-06-26T07:55:34.997Z,28.62
2019-06-26T07:56:34.984Z,28.65
2019-06-26T07:57:34.970Z,28.50
2019-06-26T07:58:34.959Z,28.73
2019-06-26T07:59:34.945Z,28.72
2019-06-26T08:00:34.931Z,28.65
2019-06-26T08:01:34.974Z,28.75
2019-06-26T08:02:34.921Z,28.77
2019-06-26T08:03:34.892Z,28.75
2019-06-26T08:04:34.882Z,28.81
2019-06-26T08:05:34.867Z,29.04
2019-06-26T08:06:34.855Z,29.20
2019-06-26T08:07:34.842Z,29.15
2019-06-26T08:08:34.829Z,29.28
2019-06-26T08:09:34.819Z,29.34
2019-06-26T08:10:34.824Z,29.35
2019-06-26T08:11:35.541Z,29.38
2019-06-26T08:12:34.779Z,29.40
2019-06-26T08:13:34.782Z,29.47
2019-06-26T08:14:34.752Z,29.56
2019-06-26T08:15:34.739Z,29.63
2019-06-26T08:16:34.728Z,29.63
2019-06-26T08:17:34.714Z,29.74
2019-06-26T08:18:34.701Z,29.56
2019-06-26T08:19:34.689Z,29.81
2019-06-26T08:20:51.642Z,29.84
2019-06-26T08:21:34.663Z,29.84
2019-06-26T08:22:34.650Z,29.81
2019-06-26T08:23:34.643Z,29.89
2019-06-26T08:24:34.626Z,29.84
2019-06-26T08:25:34.613Z,29.71
2019-06-26T08:26:34.601Z,29.59
2019-06-26T08:27:34.598Z,29.44
2019-06-26T08:28:34.576Z,29.33
2019-06-26T08:29:34.575Z,29.19
2019-06-26T08:30:34.552Z,29.15
2019-06-26T08:31:34.558Z,29.18
2019-06-26T08:32:34.527Z,29.29
2019-06-26T08:33:34.514Z,29.40
2019-06-26T08:34:34.509Z,29.50
2019-06-26T08:35:34.490Z,29.60
2019-06-26T08:36:34.478Z,29.71
2019-06-26T08:37:34.479Z,29.87
2019-06-26T08:38:34.455Z,30.02
2019-06-26T08:39:34.459Z,30.00
2019-06-26T08:40:34.434Z,30.18
2019-06-26T08:41:34.424Z,30.27
2019-06-26T08:42:34.428Z,30.31
2019-06-26T08:43:34.394Z,30.31
2019-06-26T08:44:34.381Z,30.26
2019-06-26T08:45:34.366Z,30.37
2019-06-26T08:46:34.356Z,30.46
2019-06-26T08:47:34.343Z,30.31
2019-06-26T08:48:40.152Z,30.30
2019-06-26T08:49:34.317Z,30.24
2019-06-26T08:50:34.304Z,30.18
2019-06-26T08:51:34.295Z,30.09
2019-06-26T08:52:34.282Z,30.07
2019-06-26T08:53:34.270Z,29.93
2019-06-26T08:54:34.262Z,30.05
2019-06-26T08:55:34.246Z,30.02
2019-06-26T08:56:34.235Z,30.07
2019-06-26T08:57:34.222Z,30.21
2019-06-26T08:58:34.210Z,30.36
2019-06-26T08:59:34.197Z,30.40
2019-06-26T09:00:35.689Z,30.49
2019-06-26T09:01:34.175Z,30.33
2019-06-26T09:02:34.180Z,30.40
2019-06-26T09:03:34.148Z,30.46
2019-06-26T09:04:34.139Z,30.54
2019-06-26T09:05:47.455Z,30.54
2019-06-26T09:06:34.869Z,30.38
2019-06-26T09:07:34.102Z,30.61
2019-06-26T09:08:34.093Z,30.75
2019-06-26T09:09:34.126Z,30.65
2019-06-26T09:10:34.068Z,30.75
2019-06-26T09:11:34.053Z,30.72
2019-06-26T09:12:34.042Z,30.52
2019-06-26T09:13:34.030Z,30.31
2019-06-26T09:14:34.017Z,30.36
2019-06-26T09:15:34.009Z,30.26
2019-06-26T09:16:33.996Z,30.52
2019-06-26T09:17:33.982Z,30.61
2019-06-26T09:18:35.817Z,30.76
2019-06-26T09:19:33.962Z,30.57
2019-06-26T09:20:33.963Z,30.45
2019-06-26T09:21:33.937Z,30.46
2019-06-26T09:22:33.948Z,30.45
2019-06-26T09:23:33.914Z,30.61
2019-06-26T09:24:33.903Z,30.78
2019-06-26T09:25:33.889Z,30.68
2019-06-26T09:26:33.877Z,30.89
2019-06-26T09:27:33.866Z,31.13
2019-06-26T09:28:33.857Z,31.23
2019-06-26T09:29:33.841Z,31.33
2019-06-26T09:30:33.831Z,31.46
2019-06-26T09:31:33.818Z,31.48
2019-06-26T09:32:33.808Z,31.42
2019-06-26T09:33:33.796Z,31.40
2019-06-26T09:34:33.784Z,31.46
2019-06-26T09:35:33.776Z,31.48
2019-06-26T09:36:33.761Z,31.77
2019-06-26T09:37:33.761Z,31.77
2019-06-26T09:38:33.738Z,31.80
2019-06-26T09:39:33.727Z,31.91
2019-06-26T09:40:33.716Z,31.75
2019-06-26T09:41:33.706Z,31.92
2019-06-26T09:42:33.691Z,31.98
2019-06-26T09:43:33.682Z,32.00
2019-06-26T09:44:33.671Z,31.76
2019-06-26T09:45:33.659Z,31.62
2019-06-26T09:46:33.648Z,31.72
2019-06-26T09:47:33.636Z,31.75
2019-06-26T09:48:33.625Z,31.64
2019-06-26T09:49:33.613Z,31.64
2019-06-26T09:50:33.604Z,31.57
2019-06-26T09:51:33.591Z,31.65
2019-06-26T09:52:33.581Z,31.70
2019-06-26T09:53:46.458Z,31.65
2019-06-26T09:54:33.558Z,31.60
2019-06-26T09:55:37.302Z,31.70
2019-06-26T09:56:33.536Z,31.67
2019-06-26T09:57:33.525Z,31.77
2019-06-26T09:58:33.515Z,31.99
2019-06-26T09:59:33.505Z,31.99
2019-06-26T10:00:33.507Z,32.00
2019-06-26T10:01:34.233Z,31.87
2019-06-26T10:02:33.501Z,31.93
2019-06-26T10:03:33.459Z,31.95
2019-06-26T10:04:33.448Z,31.77
2019-06-26T10:05:33.437Z,31.85
2019-06-26T10:06:33.424Z,31.79
2019-06-26T10:07:33.415Z,31.77
2019-06-26T10:08:33.405Z,31.92
2019-06-26T10:09:33.391Z,32.00
2019-06-26T10:10:33.380Z,31.95
2019-06-26T10:11:33.390Z,31.91
2019-06-26T10:12:34.863Z,32.00
2019-06-26T10:13:33.494Z,32.00
2019-06-26T10:14:46.529Z,31.95
2019-06-26T10:15:33.328Z,32.25
2019-06-26T10:16:33.328Z,32.32
2019-06-26T10:17:33.307Z,32.35
2019-06-26T10:18:33.308Z,32.43
2019-06-26T10:19:33.283Z,32.55
2019-06-26T10:20:33.273Z,32.18
2019-06-26T10:21:33.266Z,32.00
2019-06-26T10:22:33.251Z,32.15
2019-06-26T10:23:33.244Z,32.29
2019-06-26T10:24:33.264Z,32.36
2019-06-26T10:25:33.278Z,32.43
2019-06-26T10:26:33.241Z,32.58
2019-06-26T10:27:33.199Z,32.61
2019-06-26T10:28:33.186Z,32.47
2019-06-26T10:29:33.182Z,32.55
2019-06-26T10:30:33.165Z,32.71
2019-06-26T10:31:33.155Z,32.77
2019-06-26T10:32:33.143Z,32.84
2019-06-26T10:33:33.139Z,32.66
2019-06-26T10:34:33.122Z,32.77
2019-06-26T10:35:33.111Z,32.85
2019-06-26T10:36:33.101Z,32.96
2019-06-26T10:37:33.090Z,33.06
2019-06-26T10:38:33.080Z,32.95
2019-06-26T10:39:33.082Z,32.95
2019-06-26T10:40:33.058Z,33.03
2019-06-26T10:41:33.054Z,32.96
2019-06-26T10:42:33.052Z,33.03
2019-06-26T10:43:33.026Z,32.81
2019-06-26T10:44:33.018Z,32.69
2019-06-26T10:45:36.023Z,32.69
2019-06-26T10:46:32.995Z,32.74
2019-06-26T10:47:33.000Z,32.89
2019-06-26T10:48:32.976Z,32.98
2019-06-26T10:49:32.966Z,32.98
2019-06-26T10:50:32.958Z,32.96
2019-06-26T10:51:32.999Z,32.91
2019-06-26T10:52:32.934Z,32.76
2019-06-26T10:53:32.929Z,32.71
2019-06-26T10:54:32.913Z,32.80
2019-06-26T10:55:33.671Z,32.84
2019-06-26T10:56:32.895Z,33.06
2019-06-26T10:57:32.881Z,33.13
2019-06-26T10:58:32.872Z,33.07
2019-06-26T10:59:32.867Z,33.17
2019-06-26T11:00:32.856Z,33.11
2019-06-26T11:01:32.847Z,33.03
2019-06-26T11:02:32.832Z,33.06
2019-06-26T11:03:32.821Z,33.08
2019-06-26T11:04:32.811Z,33.19
2019-06-26T11:05:32.805Z,33.30
2019-06-26T11:06:36.767Z,33.31
2019-06-26T11:07:36.323Z,33.27
2019-06-26T11:08:32.775Z,33.27
2019-06-26T11:09:32.761Z,33.26
2019-06-26T11:10:32.776Z,33.34
2019-06-26T11:11:33.491Z,33.43
2019-06-26T11:12:32.730Z,33.55
2019-06-26T11:13:32.758Z,33.60
2019-06-26T11:14:32.719Z,33.58
2019-06-26T11:15:32.702Z,33.65
2019-06-26T11:16:32.694Z,33.71
2019-06-26T11:17:32.691Z,33.57
2019-06-26T11:18:32.672Z,33.51
2019-06-26T11:19:43.131Z,33.58
2019-06-26T11:20:32.700Z,33.55
2019-06-26T11:21:32.642Z,33.76
2019-06-26T11:22:32.663Z,33.82
2019-06-26T11:23:32.621Z,33.78
2019-06-26T11:24:32.616Z,33.31
2019-06-26T11:25:32.601Z,33.49
2019-06-26T11:26:32.593Z,33.51
2019-06-26T11:27:32.579Z,33.64
2019-06-26T11:28:32.575Z,33.80
2019-06-26T11:29:32.567Z,33.85
2019-06-26T11:30:32.552Z,33.89
2019-06-26T11:31:32.576Z,33.90
2019-06-26T11:32:32.531Z,33.87
2019-06-26T11:33:32.523Z,34.01
2019-06-26T11:34:32.510Z,33.83
2019-06-26T11:35:32.517Z,34.01
2019-06-26T11:36:32.494Z,34.14
2019-06-26T11:37:32.481Z,34.19
2019-06-26T11:38:33.234Z,33.97
2019-06-26T11:39:32.460Z,34.01
2019-06-26T11:40:32.455Z,33.90
2019-06-26T11:41:32.446Z,33.98
2019-06-26T11:42:32.891Z,34.23
2019-06-26T11:43:32.421Z,34.70
2019-06-26T11:44:32.414Z,34.72
2019-06-26T11:45:32.404Z,34.74
2019-06-26T11:46:32.396Z,34.70
2019-06-26T11:47:32.387Z,34.79
2019-06-26T11:48:32.376Z,34.94
2019-06-26T11:49:32.398Z,34.91
2019-06-26T11:50:32.362Z,34.88
2019-06-26T11:51:32.347Z,34.80
2019-06-26T11:52:32.341Z,34.79
2019-06-26T11:53:32.328Z,34.76
2019-06-26T11:54:32.322Z,34.66
2019-06-26T11:55:32.309Z,34.69
2019-06-26T11:56:32.332Z,34.73
2019-06-26T11:57:32.288Z,34.86
2019-06-26T11:58:32.373Z,34.86
2019-06-26T11:59:32.274Z,35.21
2019-06-26T12:00:32.263Z,35.23
2019-06-26T12:01:32.254Z,35.18
2019-06-26T12:02:32.243Z,35.14
2019-06-26T12:03:32.234Z,35.07
2019-06-26T12:04:32.227Z,34.86
2019-06-26T12:05:35.218Z,34.92
2019-06-26T12:06:32.213Z,34.83
2019-06-26T12:07:32.198Z,35.01
2019-06-26T12:08:32.203Z,34.88
2019-06-26T12:09:32.182Z,35.07
2019-06-26T12:10:32.179Z,35.02
2019-06-26T12:11:34.414Z,34.73
2019-06-26T12:12:32.150Z,34.60
2019-06-26T12:13:33.505Z,34.39
2019-06-26T12:14:32.134Z,34.44
2019-06-26T12:15:32.122Z,34.70
2019-06-26T12:16:32.116Z,34.77
2019-06-26T12:17:33.620Z,34.74
2019-06-26T12:18:32.098Z,34.63
2019-06-26T12:19:32.087Z,34.80
2019-06-26T12:20:32.252Z,34.94
2019-06-26T12:21:32.068Z,34.86
2019-06-26T12:22:32.068Z,35.06
2019-06-26T12:23:32.801Z,35.11
2019-06-26T12:24:32.042Z,35.28
2019-06-26T12:25:32.032Z,35.17
2019-06-26T12:26:32.021Z,35.10
2019-06-26T12:27:32.018Z,35.02
2019-06-26T12:28:32.009Z,35.17
2019-06-26T12:29:33.081Z,35.18
2019-06-26T12:30:31.988Z,35.29
2019-06-26T12:31:31.979Z,35.55
2019-06-26T12:32:41.506Z,35.55
2019-06-26T12:33:31.962Z,35.66
2019-06-26T12:34:32.702Z,35.62
2019-06-26T12:35:31.947Z,35.32
2019-06-26T12:36:31.936Z,34.89
2019-06-26T12:37:37.570Z,34.84
2019-06-26T12:38:31.916Z,35.06
2019-06-26T12:39:31.907Z,34.99
2019-06-26T12:40:31.898Z,35.02
2019-06-26T12:41:31.891Z,35.20
2019-06-26T12:42:31.906Z,35.57
2019-06-26T12:43:31.872Z,35.60
2019-06-26T12:44:31.863Z,35.64
2019-06-26T12:45:31.857Z,35.72
2019-06-26T12:46:31.845Z,35.79
2019-06-26T12:47:31.844Z,35.88
2019-06-26T12:48:31.828Z,35.89
2019-06-26T12:49:31.823Z,35.93
2019-06-26T12:50:35.756Z,35.79
2019-06-26T12:51:31.803Z,35.52
2019-06-26T12:52:31.793Z,35.44